0.000 kWh

EHAM AMSTERDAM/SCHIPHOL NLD -3 m.
METAR EHAM 190425Z 23012KT CAVOK 06/04 Q1015 NOSIG

EHAM AMSTERDAM/SCHIPHOL NLD -3 m.
TAF EHAM 182313Z 1900/2006 24011KT 9999 -RA SCT018 BKN025
PROB30 TEMPO 1900/1902 BKN008
BECMG 1900/1902 NSW SCT025
BECMG 1907/1910 24017KT
PROB40 1907/1911 BKN013
BECMG 1915/1918 23009KT